Time;durP1;ratioP1;P1;durP2;ratioP2;P2;SDS_P1;SDS_P2;PMS_P1;PMS_P2;Temp;Humidity;BMP_temperature;BMP_pressure;BME280_temperature;BME280_humidity;BME280_pressure;Samples;Min_cycle;Max_cycle;Signal;HPM_P1;HPM_P2
2023/07/26 00:00:30;;;;;;;29.55;8.20;;;;;;;;;;5072979;28;20037;-78
2023/07/26 00:03:01;;;;;;;28.83;9.05;;;;;;;;;;5071523;28;20128;-78
2023/07/26 00:05:32;;;;;;;31.88;9.02;;;;;;;;;;5070708;28;20052;-79
2023/07/26 00:08:04;;;;;;;24.42;7.82;;;;;;;;;;5071687;28;20056;-78
2023/07/26 00:10:34;;;;;;;21.08;7.35;;;;;;;;;;5071176;28;20517;-78
2023/07/26 00:13:05;;;;;;;24.52;8.82;;;;;;;;;;5071630;28;20406;-79
2023/07/26 00:15:35;;;;;;;22.25;8.13;;;;;;;;;;5072768;28;20074;-80
2023/07/26 00:18:06;;;;;;;27.92;8.45;;;;;;;;;;5071110;28;20056;-79
2023/07/26 00:20:37;;;;;;;30.40;8.27;;;;;;;;;;5070724;28;20396;-78
2023/07/26 00:23:09;;;;;;;21.98;7.70;;;;;;;;;;5071425;28;20336;-78
2023/07/26 00:25:39;;;;;;;23.50;8.00;;;;;;;;;;5070797;28;20043;-79
2023/07/26 00:28:10;;;;;;;19.27;8.32;;;;;;;;;;5070602;28;20119;-79
2023/07/26 00:30:40;;;;;;;25.00;7.78;;;;;;;;;;5071276;28;20043;-79
2023/07/26 00:33:12;;;;;;;;;;;;;;;;;;5070919;28;20053;-80
2023/07/26 00:35:43;;;;;;;28.25;8.10;;;;;;;;;;5054529;28;19928;-79
2023/07/26 00:38:13;;;;;;;18.58;6.68;;;;;;;;;;5071613;28;20506;-80
2023/07/26 00:40:44;;;;;;;24.15;7.28;;;;;;;;;;5072441;28;20402;-80
2023/07/26 00:43:15;;;;;;;23.70;5.95;;;;;;;;;;5070962;28;20044;-81
2023/07/26 00:45:45;;;;;;;21.25;6.88;;;;;;;;;;5054071;28;20063;-79
2023/07/26 00:48:15;;;;;;;21.90;6.40;;;;;;;;;;5070748;28;20052;-80
2023/07/26 00:50:47;;;;;;;14.85;6.40;;;;;;;;;;5072461;28;20051;-79
2023/07/26 00:53:20;;;;;;;13.73;5.50;;;;;;;;;;5072245;28;20592;-81
2023/07/26 00:55:51;;;;;;;18.85;7.10;;;;;;;;;;5070734;28;20045;-81
2023/07/26 00:58:22;;;;;;;19.40;6.82;;;;;;;;;;5072167;28;20052;-81
2023/07/26 01:00:53;;;;;;;19.63;6.28;;;;;;;;;;5069938;28;20049;-82
2023/07/26 01:03:24;;;;;;;16.33;7.10;;;;;;;;;;5072088;28;20041;-80
2023/07/26 01:05:58;;;;;;;20.58;8.75;;;;;;;;;;5070090;28;20580;-81
2023/07/26 01:08:44;;;;;;;23.90;7.43;;;;;;;;;;5070246;28;20045;-81
2023/07/26 01:11:52;;;;;;;22.70;7.78;;;;;;;;;;5070114;28;20040;-80
2023/07/26 01:14:32;;;;;;;22.80;7.85;;;;;;;;;;5069523;28;20048;-81
2023/07/26 01:17:04;;;;;;;22.75;6.95;;;;;;;;;;5070379;28;20047;-81
2023/07/26 01:19:34;;;;;;;24.58;8.80;;;;;;;;;;5070829;28;20047;-80
2023/07/26 01:22:05;;;;;;;21.17;7.95;;;;;;;;;;5070395;28;20040;-79
2023/07/26 01:24:35;;;;;;;20.50;8.50;;;;;;;;;;5070427;28;20426;-81
2023/07/26 01:27:06;;;;;;;24.23;8.20;;;;;;;;;;5069633;28;20040;-80
2023/07/26 01:29:36;;;;;;;28.25;9.80;;;;;;;;;;5071490;28;20048;-80
2023/07/26 01:32:12;;;;;;;27.35;8.35;;;;;;;;;;5069489;28;20053;-81
2023/07/26 01:34:43;;;;;;;23.65;8.18;;;;;;;;;;5069792;28;20052;-80
2023/07/26 01:37:16;;;;;;;18.42;7.65;;;;;;;;;;5069418;28;20053;-80
2023/07/26 01:39:49;;;;;;;24.20;8.70;;;;;;;;;;5071273;28;20498;-79
2023/07/26 01:42:20;;;;;;;19.67;8.85;;;;;;;;;;5071511;28;20056;-79
2023/07/26 01:44:50;;;;;;;23.05;8.48;;;;;;;;;;5070050;28;20053;-79
2023/07/26 01:47:20;;;;;;;22.50;8.73;;;;;;;;;;5071406;28;20048;-80
2023/07/26 01:49:51;;;;;;;20.10;8.50;;;;;;;;;;5071892;28;20041;-79
2023/07/26 01:52:22;;;;;;;23.20;8.10;;;;;;;;;;5071139;28;20413;-81
2023/07/26 01:54:52;;;;;;;21.20;8.30;;;;;;;;;;5071798;28;20482;-81
2023/07/26 01:57:25;;;;;;;18.58;7.47;;;;;;;;;;5070198;28;20055;-79
2023/07/26 01:59:55;;;;;;;21.10;7.43;;;;;;;;;;5069954;28;20044;-79
2023/07/26 02:02:27;;;;;;;15.25;7.03;;;;;;;;;;5070049;28;20055;-80
2023/07/26 02:04:57;;;;;;;19.98;7.00;;;;;;;;;;5053576;28;20056;-80
2023/07/26 02:07:28;;;;;;;25.27;8.13;;;;;;;;;;5069690;28;20044;-80
2023/07/26 02:09:59;;;;;;;24.52;7.70;;;;;;;;;;5069647;28;20056;-79
2023/07/26 02:12:29;;;;;;;19.90;7.22;;;;;;;;;;5057145;28;20533;-80
2023/07/26 02:15:00;;;;;;;16.05;7.30;;;;;;;;;;5074742;28;20486;-80
2023/07/26 02:17:30;;;;;;;17.92;8.00;;;;;;;;;;5073192;28;20071;-79
2023/07/26 02:20:01;;;;;;;19.60;6.93;;;;;;;;;;5074945;28;20048;-78
2023/07/26 02:22:31;;;;;;;18.30;7.05;;;;;;;;;;5073296;28;20056;-80
2023/07/26 02:25:03;;;;;;;16.58;6.88;;;;;;;;;;5073244;28;20529;-79
2023/07/26 02:27:33;;;;;;;20.05;7.25;;;;;;;;;;5074541;28;20064;-79
2023/07/26 02:30:04;;;;;;;21.20;7.45;;;;;;;;;;5072905;28;20071;-80
2023/07/26 02:32:35;;;;;;;21.00;6.55;;;;;;;;;;5073229;28;20063;-79
2023/07/26 02:35:06;;;;;;;18.75;6.47;;;;;;;;;;5072601;28;20059;-79
2023/07/26 02:37:36;;;;;;;15.80;6.63;;;;;;;;;;5074547;28;20045;-79
2023/07/26 02:40:07;;;;;;;15.45;6.68;;;;;;;;;;5072808;28;20040;-79
2023/07/26 02:42:37;;;;;;;18.05;7.00;;;;;;;;;;5074330;28;20506;-80
2023/07/26 02:45:09;;;;;;;22.15;6.82;;;;;;;;;;5074237;28;20052;-80
2023/07/26 02:47:40;;;;;;;16.30;6.80;;;;;;;;;;5072688;28;20049;-81
2023/07/26 02:50:10;;;;;;;21.25;7.30;;;;;;;;;;5074285;28;20479;-79
2023/07/26 02:52:40;;;;;;;20.30;7.63;;;;;;;;;;5072870;28;20044;-79
2023/07/26 02:55:10;;;;;;;22.55;7.70;;;;;;;;;;5072848;28;20056;-80
2023/07/26 02:57:40;;;;;;;27.45;8.02;;;;;;;;;;5074170;28;20044;-79
2023/07/26 03:00:12;;;;;;;24.25;8.10;;;;;;;;;;5073821;28;20055;-79
2023/07/26 03:02:42;;;;;;;17.42;8.10;;;;;;;;;;5056349;28;20052;-80
2023/07/26 03:05:12;;;;;;;18.15;7.65;;;;;;;;;;5074022;28;20400;-79
2023/07/26 03:07:43;;;;;;;21.27;7.22;;;;;;;;;;5073929;28;20494;-80
2023/07/26 03:10:13;;;;;;;20.17;7.45;;;;;;;;;;5072804;28;20498;-80
2023/07/26 03:12:44;;;;;;;15.40;6.72;;;;;;;;;;5072402;28;20063;-79
2023/07/26 03:15:15;;;;;;;17.58;6.93;;;;;;;;;;5073512;28;20036;-78
2023/07/26 03:17:45;;;;;;;20.13;7.97;;;;;;;;;;5072125;28;20052;-80
2023/07/26 03:20:15;;;;;;;25.48;8.25;;;;;;;;;;5073857;28;20044;-79
2023/07/26 03:22:46;;;;;;;19.30;7.20;;;;;;;;;;5054977;28;20060;-78
2023/07/26 03:25:16;;;;;;;22.23;8.95;;;;;;;;;;5055401;28;20504;-78
2023/07/26 03:27:46;;;;;;;18.25;8.68;;;;;;;;;;5073575;28;20426;-79
2023/07/26 03:30:17;;;;;;;24.40;8.05;;;;;;;;;;5071832;28;20164;-79
2023/07/26 03:32:47;;;;;;;20.30;7.38;;;;;;;;;;5073644;28;20052;-78
2023/07/26 03:35:19;;;;;;;19.67;8.02;;;;;;;;;;5071923;28;20044;-78
2023/07/26 03:37:49;;;;;;;23.85;8.75;;;;;;;;;;5072050;28;20053;-79
2023/07/26 03:40:19;;;;;;;18.33;8.35;;;;;;;;;;5055477;28;20049;-78
2023/07/26 03:42:50;;;;;;;26.35;10.00;;;;;;;;;;5056183;28;20056;-78
2023/07/26 03:45:20;;;;;;;22.70;8.85;;;;;;;;;;5056746;28;20048;-79
2023/07/26 03:47:50;;;;;;;18.67;7.53;;;;;;;;;;5072457;28;20056;-78
2023/07/26 03:50:21;;;;;;;20.58;8.02;;;;;;;;;;5074258;28;20036;-79
2023/07/26 03:52:52;;;;;;;21.40;7.65;;;;;;;;;;5074008;28;20051;-78
2023/07/26 03:55:23;;;;;;;22.75;7.93;;;;;;;;;;5074460;28;20041;-78
2023/07/26 03:57:54;;;;;;;17.13;7.43;;;;;;;;;;5072078;28;20056;-77
2023/07/26 04:00:24;;;;;;;23.98;8.15;;;;;;;;;;5074045;28;20336;-78
2023/07/26 04:02:56;;;;;;;18.85;7.72;;;;;;;;;;5074124;28;20063;-78
2023/07/26 04:05:28;;;;;;;21.17;7.93;;;;;;;;;;5072508;28;20044;-79
2023/07/26 04:07:59;;;;;;;19.42;8.98;;;;;;;;;;5073722;28;20048;-78
2023/07/26 04:10:30;;;;;;;17.98;8.05;;;;;;;;;;5074094;28;20051;-79
2023/07/26 04:13:00;;;;;;;17.13;7.60;;;;;;;;;;5071808;28;20048;-79
2023/07/26 04:15:31;;;;;;;13.57;6.93;;;;;;;;;;5073695;28;20048;-77
2023/07/26 04:18:01;;;;;;;15.10;6.35;;;;;;;;;;5073668;28;20036;-79
2023/07/26 04:20:33;;;;;;;17.33;7.38;;;;;;;;;;5072584;28;20049;-79
2023/07/26 04:23:03;;;;;;;17.55;7.13;;;;;;;;;;5073263;28;20047;-80
2023/07/26 04:25:33;;;;;;;19.73;7.15;;;;;;;;;;5073486;28;20037;-79
2023/07/26 04:28:04;;;;;;;16.90;7.28;;;;;;;;;;5072706;28;20051;-78
2023/07/26 04:30:36;;;;;;;15.90;6.97;;;;;;;;;;5071924;28;20045;-78
2023/07/26 04:33:08;;;;;;;19.25;7.13;;;;;;;;;;5073192;28;20048;-76
2023/07/26 04:35:38;;;;;;;21.80;8.52;;;;;;;;;;5072622;28;20506;-77
2023/07/26 04:38:11;;;;;;;18.98;7.68;;;;;;;;;;5073225;28;20386;-78
2023/07/26 04:40:46;;;;;;;17.95;8.70;;;;;;;;;;5071710;28;20438;-77
2023/07/26 04:43:21;;;;;;;16.63;6.43;;;;;;;;;;5072757;28;20032;-77
2023/07/26 04:45:53;;;;;;;14.18;6.85;;;;;;;;;;5072361;28;20045;-78
2023/07/26 04:48:24;;;;;;;18.42;7.07;;;;;;;;;;5073397;28;20041;-77
2023/07/26 04:50:54;;;;;;;20.95;7.22;;;;;;;;;;5072511;28;20051;-78
2023/07/26 04:53:24;;;;;;;14.55;6.85;;;;;;;;;;5071581;28;20398;-79
2023/07/26 04:55:56;;;;;;;15.85;7.38;;;;;;;;;;5071692;28;20071;-78
2023/07/26 04:58:26;;;;;;;19.00;8.07;;;;;;;;;;5072950;28;20040;-79
2023/07/26 05:00:58;;;;;;;19.00;8.60;;;;;;;;;;5071681;28;20048;-78
2023/07/26 05:03:29;;;;;;;22.35;8.88;;;;;;;;;;5054945;28;20048;-78
2023/07/26 05:06:00;;;;;;;21.00;8.25;;;;;;;;;;5073179;28;20044;-78
2023/07/26 05:08:30;;;;;;;19.75;7.88;;;;;;;;;;5071045;28;20049;-77
2023/07/26 05:11:01;;;;;;;21.15;7.78;;;;;;;;;;5073463;28;20383;-77
2023/07/26 05:13:31;;;;;;;21.40;7.43;;;;;;;;;;5072494;28;20048;-78
2023/07/26 05:16:01;;;;;;;20.45;7.47;;;;;;;;;;5072986;28;20041;-77
2023/07/26 05:18:31;;;;;;;18.63;6.32;;;;;;;;;;5072241;28;20053;-78
2023/07/26 05:21:02;;;;;;;15.35;6.05;;;;;;;;;;5071219;28;20048;-76
2023/07/26 05:23:33;;;;;;;15.10;6.55;;;;;;;;;;5072661;28;20502;-78
2023/07/26 05:26:03;;;;;;;18.45;6.78;;;;;;;;;;5072807;28;20055;-77
2023/07/26 05:28:33;;;;;;;21.85;7.95;;;;;;;;;;5072580;28;20049;-78
2023/07/26 05:31:04;;;;;;;21.42;7.95;;;;;;;;;;5070991;28;20052;-77
2023/07/26 05:33:34;;;;;;;20.35;8.52;;;;;;;;;;5071127;28;20509;-77
2023/07/26 05:36:06;;;;;;;21.83;8.75;;;;;;;;;;5072465;28;20036;-77
2023/07/26 05:38:37;;;;;;;20.02;7.25;;;;;;;;;;5054568;28;20055;-78
2023/07/26 05:41:07;;;;;;;14.98;6.90;;;;;;;;;;5054675;28;20053;-78
2023/07/26 05:43:37;;;;;;;16.42;6.50;;;;;;;;;;5072333;28;20049;-78
2023/07/26 05:46:07;;;;;;;16.83;6.70;;;;;;;;;;5074756;28;20059;-80
2023/07/26 05:48:38;;;;;;;15.88;5.72;;;;;;;;;;5076701;28;20053;-77
2023/07/26 05:51:08;;;;;;;14.60;5.93;;;;;;;;;;5076440;28;20406;-78
2023/07/26 05:53:40;;;;;;;13.75;5.82;;;;;;;;;;5076412;28;20044;-79
2023/07/26 05:56:13;;;;;;;13.73;5.47;;;;;;;;;;5076347;28;20048;-78
2023/07/26 05:58:44;;;;;;;16.25;5.60;;;;;;;;;;5075460;28;20051;-78
2023/07/26 06:01:15;;;;;;;12.82;5.43;;;;;;;;;;5076352;28;20040;-79
2023/07/26 06:03:46;;;;;;;10.23;5.50;;;;;;;;;;5075981;28;20048;-79
2023/07/26 06:06:17;;;;;;;10.05;5.32;;;;;;;;;;5075874;28;20045;-78
2023/07/26 06:08:48;;;;;;;13.98;5.10;;;;;;;;;;5076131;28;20055;-78
2023/07/26 06:11:18;;;;;;;12.15;5.20;;;;;;;;;;5074732;28;20053;-79
2023/07/26 06:13:48;;;;;;;11.93;5.72;;;;;;;;;;5074426;28;20044;-79
2023/07/26 06:16:18;;;;;;;10.52;5.30;;;;;;;;;;5073908;28;20044;-78
2023/07/26 06:18:49;;;;;;;11.95;5.25;;;;;;;;;;5075519;28;20051;-78
2023/07/26 06:21:20;;;;;;;12.25;5.78;;;;;;;;;;5076252;28;20064;-79
2023/07/26 06:23:50;;;;;;;13.65;4.88;;;;;;;;;;5073867;28;20056;-79
2023/07/26 06:26:22;;;;;;;12.05;4.80;;;;;;;;;;5075680;28;20043;-79
2023/07/26 06:28:52;;;;;;;14.00;5.05;;;;;;;;;;5074737;28;20048;-79
2023/07/26 06:31:23;;;;;;;12.15;5.25;;;;;;;;;;5057648;28;20053;-78
2023/07/26 06:33:53;;;;;;;11.38;5.00;;;;;;;;;;5075142;28;20051;-79
2023/07/26 06:36:23;;;;;;;11.55;4.93;;;;;;;;;;5075494;28;20040;-79
2023/07/26 06:38:53;;;;;;;12.05;4.68;;;;;;;;;;5075268;28;20048;-78
2023/07/26 06:41:22;;;;;;;12.02;4.50;;;;;;;;;;5073444;28;20483;-79
2023/07/26 06:43:53;;;;;;;15.98;5.43;;;;;;;;;;5073743;28;20048;-79
2023/07/26 06:46:23;;;;;;;12.55;4.40;;;;;;;;;;5075684;28;20040;-78
2023/07/26 06:48:53;;;;;;;10.07;4.43;;;;;;;;;;5075635;28;20051;-78
2023/07/26 06:51:23;;;;;;;8.60;4.30;;;;;;;;;;5075191;28;20049;-79
2023/07/26 06:53:53;;;;;;;11.20;4.65;;;;;;;;;;5073548;28;20045;-79
2023/07/26 06:56:23;;;;;;;9.45;4.47;;;;;;;;;;5074754;28;20049;-78
2023/07/26 06:58:53;;;;;;;9.20;4.25;;;;;;;;;;5074214;28;20048;-79
2023/07/26 07:01:24;;;;;;;9.05;4.50;;;;;;;;;;5074023;28;20049;-80
2023/07/26 07:03:53;;;;;;;10.30;4.47;;;;;;;;;;5074766;28;20486;-80
2023/07/26 07:06:41;;;;;;;16.45;4.43;;;;;;;;;;5075205;28;20041;-79
2023/07/26 07:09:14;;;;;;;7.72;4.13;;;;;;;;;;5073826;28;20048;-80
2023/07/26 07:11:45;;;;;;;10.07;3.95;;;;;;;;;;5075344;28;20091;-80
2023/07/26 07:14:15;;;;;;;8.15;4.07;;;;;;;;;;5074447;28;20036;-79
2023/07/26 07:16:47;;;;;;;11.77;3.75;;;;;;;;;;5073487;28;20048;-79
2023/07/26 07:19:17;;;;;;;8.63;4.03;;;;;;;;;;5073322;28;20040;-80
2023/07/26 07:21:48;;;;;;;7.90;4.15;;;;;;;;;;5074715;28;20487;-79
2023/07/26 07:24:18;;;;;;;10.27;3.78;;;;;;;;;;5073752;28;20059;-80
2023/07/26 07:26:48;;;;;;;7.75;3.75;;;;;;;;;;5074902;28;20036;-80
2023/07/26 07:29:18;;;;;;;8.05;3.58;;;;;;;;;;5074480;28;20059;-80
2023/07/26 07:31:48;;;;;;;9.30;3.92;;;;;;;;;;5056056;28;20060;-80
2023/07/26 07:34:18;;;;;;;13.63;3.85;;;;;;;;;;5056027;28;20483;-79
2023/07/26 07:36:50;;;;;;;13.13;3.75;;;;;;;;;;5074297;28;20051;-79
2023/07/26 07:39:21;;;;;;;12.38;4.00;;;;;;;;;;5074087;28;20059;-80
2023/07/26 07:41:51;;;;;;;11.40;3.97;;;;;;;;;;5056800;28;20059;-80
2023/07/26 07:44:21;;;;;;;10.15;3.78;;;;;;;;;;5074758;28;20044;-79
2023/07/26 07:46:51;;;;;;;9.98;3.88;;;;;;;;;;5074061;28;20049;-80
2023/07/26 07:49:32;;;;;;;8.77;3.20;;;;;;;;;;5074524;28;20487;-80
2023/07/26 07:52:01;;;;;;;7.40;3.05;;;;;;;;;;5074299;28;20051;-80
2023/07/26 07:54:31;;;;;;;7.57;3.78;;;;;;;;;;5072623;28;20040;-80
2023/07/26 07:57:02;;;;;;;7.28;3.45;;;;;;;;;;5074133;28;20048;-80
2023/07/26 07:59:32;;;;;;;11.13;3.42;;;;;;;;;;5072987;28;20044;-80
2023/07/26 08:02:04;;;;;;;11.63;4.82;;;;;;;;;;5074357;28;20383;-80
2023/07/26 08:04:38;;;;;;;10.18;3.80;;;;;;;;;;5074462;28;20044;-80
2023/07/26 08:07:08;;;;;;;10.15;4.00;;;;;;;;;;5073998;28;20045;-80
2023/07/26 08:09:41;;;;;;;10.48;3.78;;;;;;;;;;5072322;28;20049;-79
2023/07/26 08:12:12;;;;;;;9.57;3.83;;;;;;;;;;5055641;28;20052;-79
2023/07/26 08:14:46;;;;;;;8.82;4.10;;;;;;;;;;5072475;28;20403;-80
2023/07/26 08:17:17;;;;;;;10.10;3.22;;;;;;;;;;5073743;28;20041;-78
2023/07/26 08:19:47;;;;;;;9.00;3.20;;;;;;;;;;5071876;28;20056;-79
2023/07/26 08:22:18;;;;;;;8.25;3.30;;;;;;;;;;5072341;28;20052;-77
2023/07/26 08:24:52;;;;;;;8.85;3.33;;;;;;;;;;5073427;28;20051;-79
2023/07/26 08:27:23;;;;;;;8.30;3.15;;;;;;;;;;5073403;28;20045;-77
2023/07/26 08:29:53;;;;;;;7.63;2.92;;;;;;;;;;5071802;28;20056;-78
2023/07/26 08:32:24;;;;;;;9.63;3.40;;;;;;;;;;5072707;28;20052;-79
2023/07/26 08:34:54;;;;;;;11.48;3.20;;;;;;;;;;5073845;28;20048;-78
2023/07/26 08:37:25;;;;;;;9.02;3.47;;;;;;;;;;5072119;28;20055;-77
2023/07/26 08:39:55;;;;;;;12.90;3.25;;;;;;;;;;5071420;28;20054;-79
2023/07/26 08:42:26;;;;;;;8.50;3.25;;;;;;;;;;5072001;28;20041;-78
2023/07/26 08:44:56;;;;;;;12.52;3.35;;;;;;;;;;5071849;28;20060;-78
2023/07/26 08:47:28;;;;;;;7.88;3.13;;;;;;;;;;5072492;28;20048;-78
2023/07/26 08:49:59;;;;;;;6.55;3.38;;;;;;;;;;5073170;28;20032;-79
2023/07/26 08:52:29;;;;;;;12.43;3.17;;;;;;;;;;5072494;28;20064;-78
2023/07/26 08:55:01;;;;;;;9.18;3.60;;;;;;;;;;5071704;28;20033;-79
2023/07/26 08:57:33;;;;;;;11.00;3.97;;;;;;;;;;5071827;28;20044;-78
2023/07/26 09:00:05;;;;;;;7.38;4.00;;;;;;;;;;5073126;28;20044;-78
2023/07/26 09:02:36;;;;;;;10.73;3.83;;;;;;;;;;5055295;28;20071;-78
2023/07/26 09:05:09;;;;;;;8.20;3.30;;;;;;;;;;5073226;28;20041;-79
2023/07/26 09:07:39;;;;;;;8.27;2.92;;;;;;;;;;5072769;28;20044;-78
2023/07/26 09:10:11;;;;;;;7.68;3.28;;;;;;;;;;5071934;28;20049;-79
2023/07/26 09:12:41;;;;;;;6.43;3.38;;;;;;;;;;5070680;28;20053;-79
2023/07/26 09:15:11;;;;;;;9.23;3.22;;;;;;;;;;5071750;28;20048;-79
2023/07/26 09:17:43;;;;;;;12.32;3.92;;;;;;;;;;5070383;28;20055;-79
2023/07/26 09:20:22;;;;;;;8.20;3.45;;;;;;;;;;5073260;28;20037;-78
2023/07/26 09:23:07;;;;;;;11.40;3.50;;;;;;;;;;5075034;28;20048;-79
2023/07/26 09:25:41;;;;;;;8.27;3.40;;;;;;;;;;5075383;28;20075;-78
2023/07/26 09:28:16;;;;;;;6.63;3.15;;;;;;;;;;5076143;28;20049;-78
2023/07/26 09:30:48;;;;;;;8.68;3.30;;;;;;;;;;5076914;28;20040;-78
2023/07/26 09:33:22;;;;;;;8.98;3.75;;;;;;;;;;5076821;28;20044;-78
2023/07/26 09:35:53;;;;;;;7.72;3.45;;;;;;;;;;5076608;28;20040;-79
2023/07/26 09:38:26;;;;;;;7.82;3.33;;;;;;;;;;5075676;28;20063;-79
2023/07/26 09:40:56;;;;;;;10.18;3.67;;;;;;;;;;5076368;28;20040;-79
2023/07/26 09:43:31;;;;;;;12.68;3.50;;;;;;;;;;5074393;28;20052;-78
2023/07/26 09:46:07;;;;;;;8.52;3.42;;;;;;;;;;5075045;28;20056;-79
2023/07/26 09:48:58;;;;;;;8.60;3.92;;;;;;;;;;5076636;28;20479;-79
2023/07/26 09:51:31;;;;;;;9.18;3.22;;;;;;;;;;5074459;28;20048;-79
2023/07/26 09:54:02;;;;;;;8.63;4.25;;;;;;;;;;5075271;28;20075;-79
2023/07/26 09:56:34;;;;;;;14.38;4.40;;;;;;;;;;5075114;28;20154;-78
2023/07/26 09:59:08;;;;;;;7.88;3.75;;;;;;;;;;5076110;28;20036;-79
2023/07/26 10:01:41;;;;;;;9.20;3.83;;;;;;;;;;5076325;28;20040;-78
2023/07/26 10:04:16;;;;;;;14.10;4.15;;;;;;;;;;5074749;28;20049;-78
2023/07/26 10:06:51;;;;;;;10.30;3.97;;;;;;;;;;5075081;28;20043;-78
2023/07/26 10:09:23;;;;;;;12.23;4.40;;;;;;;;;;5076156;28;20541;-79
2023/07/26 10:11:55;;;;;;;10.68;3.58;;;;;;;;;;5077060;28;20040;-78
2023/07/26 10:14:26;;;;;;;15.50;3.95;;;;;;;;;;5084869;28;20048;-79
2023/07/26 10:16:58;;;;;;;14.40;5.15;;;;;;;;;;5079216;28;20056;-79
2023/07/26 10:19:30;;;;;;;8.82;4.43;;;;;;;;;;5061167;28;20528;-78
2023/07/26 10:22:00;;;;;;;11.52;4.18;;;;;;;;;;5087343;28;20047;-80
2023/07/26 10:24:31;;;;;;;11.57;4.38;;;;;;;;;;5087071;28;20044;-78
2023/07/26 10:27:03;;;;;;;12.20;5.47;;;;;;;;;;5076973;28;20044;-78
2023/07/26 10:29:35;;;;;;;11.35;5.15;;;;;;;;;;5069126;28;20035;-79
2023/07/26 10:32:07;;;;;;;14.13;6.75;;;;;;;;;;5095224;28;20039;-79
2023/07/26 10:34:38;;;;;;;19.90;6.50;;;;;;;;;;5094476;28;20048;-79
2023/07/26 10:37:19;;;;;;;15.90;6.50;;;;;;;;;;5095209;28;20402;-78
2023/07/26 10:39:51;;;;;;;11.60;6.53;;;;;;;;;;5094132;28;20060;-78
2023/07/26 10:42:23;;;;;;;13.85;6.35;;;;;;;;;;5095872;28;20128;-79
2023/07/26 10:44:54;;;;;;;14.30;7.13;;;;;;;;;;5076964;28;20406;-78
2023/07/26 10:47:25;;;;;;;16.95;7.32;;;;;;;;;;5094137;28;20343;-80
2023/07/26 10:50:04;;;;;;;14.65;5.63;;;;;;;;;;5094501;28;20047;-79
2023/07/26 10:52:36;;;;;;;11.70;5.35;;;;;;;;;;5094025;28;20055;-78
2023/07/26 10:55:35;;;;;;;;;;;;;;;;;;5094153;28;20402;-78
2023/07/26 10:58:13;;;;;;;16.73;5.25;;;;;;;;;;5086798;28;20304;-79
2023/07/26 11:00:45;;;;;;;18.20;4.88;;;;;;;;;;5093417;28;20493;-78
2023/07/26 11:03:25;;;;;;;18.02;4.93;;;;;;;;;;5093548;28;20048;-77
2023/07/26 11:05:56;;;;;;;15.63;5.07;;;;;;;;;;5093668;28;20048;-78
2023/07/26 11:08:43;;;;;;;17.55;6.28;;;;;;;;;;5093207;28;20443;-78
2023/07/26 11:11:18;;;;;;;11.07;5.00;;;;;;;;;;5095007;28;20052;-79
2023/07/26 11:13:48;;;;;;;9.68;4.25;;;;;;;;;;5093368;28;20151;-78
2023/07/26 11:16:18;;;;;;;11.95;3.72;;;;;;;;;;5095072;28;20044;-77
2023/07/26 11:18:48;;;;;;;9.82;3.45;;;;;;;;;;5080116;28;20047;-79
2023/07/26 11:21:18;;;;;;;15.02;3.67;;;;;;;;;;5073608;28;20051;-78
2023/07/26 11:23:49;;;;;;;9.73;4.20;;;;;;;;;;5074615;28;20040;-77
2023/07/26 11:26:19;;;;;;;14.35;4.25;;;;;;;;;;5074404;28;20042;-78
2023/07/26 11:28:49;;;;;;;10.73;5.07;;;;;;;;;;5075288;28;20397;-77
2023/07/26 11:31:20;;;;;;;13.52;4.35;;;;;;;;;;5074565;28;20055;-76
2023/07/26 11:33:51;;;;;;;11.48;4.65;;;;;;;;;;5074570;28;20045;-77
2023/07/26 11:36:21;;;;;;;14.20;6.00;;;;;;;;;;5074651;28;20052;-76
2023/07/26 11:38:52;;;;;;;20.08;5.80;;;;;;;;;;5074116;28;20049;-77
2023/07/26 11:41:22;;;;;;;14.95;5.80;;;;;;;;;;5071981;28;20048;-77
2023/07/26 11:43:55;;;;;;;14.15;5.53;;;;;;;;;;5072053;28;20053;-76
2023/07/26 11:46:29;;;;;;;16.67;5.10;;;;;;;;;;5073345;28;20056;-78
2023/07/26 11:49:00;;;;;;;20.38;5.53;;;;;;;;;;5074538;28;20052;-77
2023/07/26 11:51:34;;;;;;;17.33;5.78;;;;;;;;;;5073997;28;20048;-78
2023/07/26 11:54:10;;;;;;;18.67;5.15;;;;;;;;;;5071752;28;20025;-77
2023/07/26 11:56:40;;;;;;;16.67;5.15;;;;;;;;;;5071090;28;20051;-78
2023/07/26 11:59:12;;;;;;;13.95;5.75;;;;;;;;;;5072921;28;20044;-78
2023/07/26 12:01:44;;;;;;;15.98;4.38;;;;;;;;;;5055542;28;20391;-76
2023/07/26 12:04:16;;;;;;;11.82;3.92;;;;;;;;;;5071658;28;20059;-78
2023/07/26 12:06:50;;;;;;;11.10;3.17;;;;;;;;;;5071510;28;20045;-77
2023/07/26 12:09:20;;;;;;;9.48;3.05;;;;;;;;;;5071697;28;20068;-77
2023/07/26 12:11:56;;;;;;;10.77;4.05;;;;;;;;;;5072893;28;20379;-75
2023/07/26 12:14:31;;;;;;;11.70;3.50;;;;;;;;;;5073688;28;20051;-78
2023/07/26 12:17:01;;;;;;;;;;;;;;;;;;5073988;28;20033;-79
2023/07/26 12:19:31;;;;;;;12.48;4.65;;;;;;;;;;5073303;28;19925;-78
2023/07/26 12:22:04;;;;;;;15.40;5.78;;;;;;;;;;5073845;28;20403;-78
2023/07/26 12:24:51;;;;;;;16.10;4.78;;;;;;;;;;5073724;28;20056;-77
2023/07/26 12:27:21;;;;;;;14.40;5.53;;;;;;;;;;5073349;28;20036;-76
2023/07/26 12:29:52;;;;;;;22.48;6.43;;;;;;;;;;5073513;28;20037;-77
2023/07/26 12:32:23;;;;;;;15.15;5.90;;;;;;;;;;5071727;28;20399;-78
2023/07/26 12:34:53;;;;;;;14.77;5.40;;;;;;;;;;5072101;28;20044;-78
2023/07/26 12:37:31;;;;;;;12.63;5.28;;;;;;;;;;5070194;28;20131;-77
2023/07/26 12:40:01;;;;;;;15.70;6.80;;;;;;;;;;5072924;28;20041;-76
2023/07/26 12:42:32;;;;;;;18.23;8.73;;;;;;;;;;5073240;28;20075;-78
2023/07/26 12:45:03;;;;;;;18.90;6.30;;;;;;;;;;5071963;28;20060;-76
2023/07/26 12:47:33;;;;;;;15.88;6.32;;;;;;;;;;5071701;28;20044;-77
2023/07/26 12:50:03;;;;;;;15.05;5.80;;;;;;;;;;5071209;28;20073;-77
2023/07/26 12:52:37;;;;;;;18.48;6.07;;;;;;;;;;5072732;28;20036;-77
2023/07/26 12:55:08;;;;;;;15.52;5.13;;;;;;;;;;5071375;28;20041;-77
2023/07/26 12:57:38;;;;;;;17.85;4.70;;;;;;;;;;5073241;28;20056;-77
2023/07/26 13:00:09;;;;;;;12.38;3.70;;;;;;;;;;5072859;28;20047;-78
2023/07/26 13:02:40;;;;;;;9.32;3.00;;;;;;;;;;5054884;28;20063;-76
2023/07/26 13:05:10;;;;;;;6.97;2.38;;;;;;;;;;5072722;28;20478;-76
2023/07/26 13:07:41;;;;;;;4.38;3.13;;;;;;;;;;5072713;28;20414;-77
2023/07/26 13:10:12;;;;;;;6.60;2.78;;;;;;;;;;5071156;28;20044;-78
2023/07/26 13:12:42;;;;;;;11.25;2.70;;;;;;;;;;5070721;28;20048;-79
2023/07/26 13:15:12;;;;;;;7.28;2.20;;;;;;;;;;5070511;28;20059;-79
2023/07/26 13:17:44;;;;;;;10.02;2.40;;;;;;;;;;5058153;28;20049;-77
2023/07/26 13:20:16;;;;;;;6.20;2.28;;;;;;;;;;5067531;28;20041;-79
2023/07/26 13:22:46;;;;;;;5.13;1.83;;;;;;;;;;5052026;28;20057;-80
2023/07/26 13:25:17;;;;;;;4.38;1.50;;;;;;;;;;5050830;28;20044;-81
2023/07/26 13:27:46;;;;;;;4.70;1.50;;;;;;;;;;5052290;28;20413;-80
2023/07/26 13:30:16;;;;;;;4.82;1.67;;;;;;;;;;5051967;28;20418;-78
2023/07/26 13:32:47;;;;;;;3.83;1.83;;;;;;;;;;5052613;28;20403;-79
2023/07/26 13:35:18;;;;;;;4.72;2.10;;;;;;;;;;5066957;28;20384;-79
2023/07/26 13:37:48;;;;;;;2.78;1.30;;;;;;;;;;5051855;28;20053;-77
2023/07/26 13:40:20;;;;;;;7.90;1.70;;;;;;;;;;5052155;28;20048;-78
2023/07/26 13:42:50;;;;;;;3.85;1.83;;;;;;;;;;5083949;28;20048;-79
2023/07/26 13:45:21;;;;;;;7.03;1.45;;;;;;;;;;5051178;28;20045;-79
2023/07/26 13:47:51;;;;;;;3.72;1.88;;;;;;;;;;5051144;28;20041;-78
2023/07/26 13:50:21;;;;;;;4.72;1.60;;;;;;;;;;5050445;28;20053;-78
2023/07/26 13:52:52;;;;;;;5.93;1.33;;;;;;;;;;5050714;28;20049;-78
2023/07/26 13:55:23;;;;;;;4.60;1.83;;;;;;;;;;5051639;28;20060;-81
2023/07/26 13:57:53;;;;;;;8.07;1.42;;;;;;;;;;5050276;28;20064;-78
2023/07/26 14:00:24;;;;;;;5.38;1.52;;;;;;;;;;5051774;28;20041;-80
2023/07/26 14:02:54;;;;;;;5.57;1.63;;;;;;;;;;5050742;28;20411;-79
2023/07/26 14:05:24;;;;;;;7.20;1.80;;;;;;;;;;5057553;28;20494;-79
2023/07/26 14:07:54;;;;;;;5.13;1.30;;;;;;;;;;5074802;28;20052;-80
2023/07/26 14:10:24;;;;;;;12.65;1.60;;;;;;;;;;5075643;28;20048;-79
2023/07/26 14:12:54;;;;;;;4.00;1.60;;;;;;;;;;5074052;28;20158;-81
2023/07/26 14:15:25;;;;;;;7.32;1.30;;;;;;;;;;5074515;28;20491;-81
2023/07/26 14:17:55;;;;;;;5.38;1.55;;;;;;;;;;5074105;28;20052;-79
2023/07/26 14:20:25;;;;;;;6.13;1.80;;;;;;;;;;5075424;28;20045;-79
2023/07/26 14:22:56;;;;;;;7.18;1.65;;;;;;;;;;5075384;28;20059;-78
2023/07/26 14:25:26;;;;;;;6.50;1.48;;;;;;;;;;5075234;28;20486;-79
2023/07/26 14:27:56;;;;;;;5.18;1.38;;;;;;;;;;5075454;28;20055;-79
2023/07/26 14:30:26;;;;;;;6.53;1.70;;;;;;;;;;5075090;28;20051;-79
2023/07/26 14:32:57;;;;;;;6.53;1.73;;;;;;;;;;5075355;28;20041;-78
2023/07/26 14:35:28;;;;;;;6.13;1.30;;;;;;;;;;5075496;28;20059;-79
2023/07/26 14:37:58;;;;;;;6.35;1.25;;;;;;;;;;5074070;28;20060;-79
2023/07/26 14:40:31;;;;;;;4.05;1.30;;;;;;;;;;5075159;28;20040;-80
2023/07/26 14:43:01;;;;;;;4.50;1.23;;;;;;;;;;5074781;28;20495;-79
2023/07/26 14:45:31;;;;;;;7.47;1.38;;;;;;;;;;5075075;28;20041;-80
2023/07/26 14:48:01;;;;;;;6.75;1.42;;;;;;;;;;5074615;28;20059;-79
2023/07/26 14:50:31;;;;;;;5.00;1.38;;;;;;;;;;5075524;28;20036;-79
2023/07/26 14:53:01;;;;;;;4.75;1.08;;;;;;;;;;5073684;28;20048;-76
2023/07/26 14:55:31;;;;;;;7.40;1.92;;;;;;;;;;5073137;28;20071;-77
2023/07/26 14:58:01;;;;;;;7.63;1.50;;;;;;;;;;5074359;28;20051;-78